Time;durP1;ratioP1;P1;durP2;ratioP2;P2;SDS_P1;SDS_P2;PMS_P1;PMS_P2;Temp;Humidity;BMP_temperature;BMP_pressure;BME280_temperature;BME280_humidity;BME280_pressure;Samples;Min_cycle;Max_cycle;Signal;HPM_P1;HPM_P2
2021/08/17 00:00:51;;;;;;;12.20;7.20;;;;;;;23.29;51.24;100745.41;5035578;28;20266;-61
2021/08/17 00:03:17;;;;;;;11.13;7.33;;;;;;;23.19;52.07;100746.94;5053306;28;20188;-61
2021/08/17 00:05:42;;;;;;;12.37;7.00;;;;;;;23.17;52.22;100746.66;5053230;28;20200;-61
2021/08/17 00:08:08;;;;;;;9.43;6.83;;;;;;;22.88;51.45;100704.81;5053336;28;20188;-61
2021/08/17 00:10:34;;;;;;;8.63;6.80;;;;;;;23.18;52.08;100748.25;5053432;28;20237;-61
2021/08/17 00:13:00;;;;;;;12.13;7.03;;;;;;;23.16;51.93;100745.91;5053548;28;20176;-61
2021/08/17 00:15:25;;;;;;;10.27;7.40;;;;;;;23.14;51.70;100748.44;5053111;28;20179;-61
2021/08/17 00:17:51;;;;;;;9.47;6.70;;;;;;;23.00;51.97;100741.03;5053165;28;20203;-61
2021/08/17 00:20:16;;;;;;;9.67;6.27;;;;;;;22.87;51.62;100708.94;5052925;28;20649;-61
2021/08/17 00:22:42;;;;;;;12.33;7.10;;;;;;;23.01;52.18;100750.28;5053204;28;20267;-60
2021/08/17 00:25:09;;;;;;;10.83;6.90;;;;;;;22.57;52.45;100699.44;5053045;28;20681;-60
2021/08/17 00:27:35;;;;;;;8.73;6.13;;;;;;;22.90;51.90;100751.06;5053004;28;20212;-60
2021/08/17 00:30:01;;;;;;;9.63;6.83;;;;;;;22.91;52.23;100749.78;5053059;28;20673;-60
2021/08/17 00:32:26;;;;;;;10.33;6.33;;;;;;;22.53;52.50;100685.56;5052932;28;20177;-61
2021/08/17 00:34:52;;;;;;;11.63;6.47;;;;;;;22.94;52.50;100754.41;5052916;28;20203;-60
2021/08/17 00:37:18;;;;;;;12.47;6.43;;;;;;;22.88;52.52;100742.31;5052889;28;20168;-60
2021/08/17 00:39:44;;;;;;;10.23;6.80;;;;;;;22.97;52.54;100758.25;5052740;28;20242;-61
2021/08/17 00:42:09;;;;;;;10.20;6.67;;;;;;;22.92;52.22;100759.03;5052744;28;20230;-61
2021/08/17 00:44:36;;;;;;;8.83;6.23;;;;;;;22.91;51.99;100761.06;5052413;28;20227;-61
2021/08/17 00:47:01;;;;;;;10.50;6.33;;;;;;;22.84;52.47;100761.59;5052623;28;20235;-61
2021/08/17 00:49:28;;;;;;;9.13;5.77;;;;;;;22.80;51.99;100757.47;5052581;28;20208;-60
2021/08/17 00:51:58;;;;;;;8.17;5.60;;;;;;;22.51;52.42;100755.91;5052486;28;20711;-60
2021/08/17 00:54:23;;;;;;;9.77;5.83;;;;;;;21.77;52.87;100684.13;5052150;28;20181;-60
2021/08/17 00:56:49;;;;;;;11.33;6.37;;;;;;;22.06;53.16;100734.47;5052366;28;20178;-60
2021/08/17 00:59:15;;;;;;;9.57;6.00;;;;;;;22.19;53.20;100759.38;5052352;28;20726;-60
2021/08/17 01:01:41;;;;;;;7.17;5.57;;;;;;;22.20;53.32;100767.34;5052285;28;20169;-60
2021/08/17 01:04:08;;;;;;;11.30;6.17;;;;;;;22.28;53.83;100762.00;5052099;28;20194;-60
2021/08/17 01:06:35;;;;;;;10.00;6.60;;;;;;;22.36;53.94;100763.81;5052248;28;20688;-60
2021/08/17 01:09:00;;;;;;;8.03;6.13;;;;;;;22.41;53.48;100765.13;5051901;28;20190;-60
2021/08/17 01:11:26;;;;;;;7.47;5.87;;;;;;;22.34;53.68;100766.38;5052378;28;20255;-61
2021/08/17 01:13:51;;;;;;;9.73;5.67;;;;;;;22.41;53.47;100777.16;5052192;28;20184;-60
2021/08/17 01:16:19;;;;;;;8.10;5.53;;;;;;;22.40;53.48;100753.03;5052007;28;20635;-61
2021/08/17 01:18:45;;;;;;;12.33;6.67;;;;;;;22.50;53.30;100762.06;5051809;28;20181;-60
2021/08/17 01:21:10;;;;;;;12.40;6.83;;;;;;;22.28;52.98;100719.63;5051854;28;20184;-61
2021/08/17 01:23:36;;;;;;;13.37;6.20;;;;;;;22.51;52.50;100749.50;5051854;28;20697;-61
2021/08/17 01:26:02;;;;;;;8.57;5.87;;;;;;;22.61;52.32;100768.50;5051797;28;20200;-60
2021/08/17 01:28:28;;;;;;;8.77;5.90;;;;;;;22.09;52.91;100690.34;5051803;28;20246;-60
2021/08/17 01:31:04;;;;;;;18.53;7.03;;;;;;;22.42;52.33;100739.16;5051785;28;20658;-61
2021/08/17 01:33:30;;;;;;;14.27;6.40;;;;;;;22.54;52.59;100769.00;5051579;28;20668;-60
2021/08/17 01:35:57;;;;;;;9.80;5.90;;;;;;;22.46;52.86;100751.03;5051723;28;20172;-61
2021/08/17 01:38:23;;;;;;;11.53;5.67;;;;;;;22.54;52.77;100754.91;5051632;28;20226;-61
2021/08/17 01:40:48;;;;;;;9.70;5.90;;;;;;;22.58;52.45;100758.25;5051519;28;20274;-61
2021/08/17 01:43:15;;;;;;;11.83;5.83;;;;;;;22.56;52.90;100755.13;5051309;28;20302;-61
2021/08/17 01:45:40;;;;;;;8.07;5.80;;;;;;;22.54;52.97;100752.06;5051243;28;20214;-60
2021/08/17 01:48:09;;;;;;;7.90;5.30;;;;;;;22.01;52.50;100686.50;5051479;28;20176;-60
2021/08/17 01:50:35;;;;;;;9.03;5.90;;;;;;;21.85;52.81;100673.88;5051436;28;20180;-60
2021/08/17 01:53:00;;;;;;;7.53;5.60;;;;;;;22.41;53.19;100760.22;5051312;28;20180;-60
2021/08/17 01:55:26;;;;;;;7.20;5.70;;;;;;;22.03;52.93;100709.31;5033583;28;20245;-60
2021/08/17 01:57:51;;;;;;;9.00;5.47;;;;;;;22.36;53.31;100758.16;5051506;28;20206;-61
2021/08/17 02:00:17;;;;;;;9.20;5.67;;;;;;;22.04;53.49;100725.75;5051364;28;20646;-60
2021/08/17 02:02:42;;;;;;;7.27;5.60;;;;;;;22.17;53.68;100745.03;5051772;28;20642;-60
2021/08/17 02:05:09;;;;;;;8.00;5.87;;;;;;;22.19;53.37;100748.88;5050707;28;20184;-60
2021/08/17 02:07:35;;;;;;;7.33;5.50;;;;;;;22.26;53.32;100759.66;5051019;28;20203;-60
2021/08/17 02:10:00;;;;;;;11.63;6.20;;;;;;;22.32;53.44;100754.06;5051179;28;20180;-60
2021/08/17 02:12:26;;;;;;;17.77;6.10;;;;;;;22.38;53.33;100755.59;5033242;28;20739;-60
2021/08/17 02:14:51;;;;;;;13.00;5.93;;;;;;;22.43;53.24;100756.88;5051332;28;20176;-60
2021/08/17 02:17:17;;;;;;;12.40;6.43;;;;;;;22.43;53.37;100763.31;5051133;28;20234;-60
2021/08/17 02:19:42;;;;;;;8.37;5.27;;;;;;;22.46;53.36;100753.84;5051013;28;20172;-60
2021/08/17 02:22:08;;;;;;;8.17;5.17;;;;;;;22.49;53.36;100758.47;5033572;28;20680;-60
2021/08/17 02:24:33;;;;;;;10.83;6.33;;;;;;;22.49;52.85;100760.53;5051106;28;20212;-61
2021/08/17 02:26:59;;;;;;;7.47;6.03;;;;;;;21.96;53.52;100702.09;5050850;28;20234;-61
2021/08/17 02:29:24;;;;;;;16.93;6.70;;;;;;;22.37;53.50;100744.81;5051100;28;20187;-60
2021/08/17 02:31:50;;;;;;;8.67;6.20;;;;;;;22.31;53.39;100741.22;5050773;28;20259;-60
2021/08/17 02:34:15;;;;;;;11.33;5.50;;;;;;;22.28;53.53;100753.53;5051002;28;20242;-61
2021/08/17 02:36:41;;;;;;;8.07;5.53;;;;;;;22.01;53.65;100749.31;5051052;28;20685;-60
2021/08/17 02:39:08;;;;;;;9.83;6.30;;;;;;;21.63;54.05;100712.47;5033158;28;20184;-60
2021/08/17 02:41:34;;;;;;;7.33;6.00;;;;;;;21.85;54.51;100757.75;5050971;28;20192;-60
2021/08/17 02:43:59;;;;;;;8.53;6.37;;;;;;;21.82;54.62;100755.94;5050656;28;20285;-60
2021/08/17 02:46:25;;;;;;;7.90;5.50;;;;;;;21.83;54.84;100752.59;5050772;28;20207;-60
2021/08/17 02:48:50;;;;;;;8.90;6.20;;;;;;;21.81;54.88;100749.50;5050781;28;20630;-60
2021/08/17 02:51:16;;;;;;;9.37;6.10;;;;;;;21.80;54.94;100742.31;5050868;28;20232;-60
2021/08/17 02:53:42;;;;;;;12.00;6.57;;;;;;;21.79;54.99;100737.19;5050784;28;20654;-60
2021/08/17 02:56:07;;;;;;;8.93;6.10;;;;;;;21.79;55.16;100740.00;5050663;28;20169;-60
2021/08/17 02:58:32;;;;;;;11.13;6.17;;;;;;;21.80;55.17;100741.56;5050755;28;20188;-60
2021/08/17 03:00:58;;;;;;;12.07;6.73;;;;;;;21.51;55.18;100693.97;5050743;28;20180;-60
2021/08/17 03:03:23;;;;;;;10.23;6.43;;;;;;;21.81;55.25;100745.94;5050463;28;20219;-60
2021/08/17 03:05:49;;;;;;;12.67;7.17;;;;;;;21.83;55.09;100752.59;5050789;28;20207;-60
2021/08/17 03:08:14;;;;;;;11.03;6.60;;;;;;;21.72;55.08;100743.31;5050635;28;20192;-60
2021/08/17 03:10:40;;;;;;;9.40;6.07;;;;;;;21.55;54.94;100731.16;5050563;28;20176;-60
2021/08/17 03:13:07;;;;;;;8.77;6.13;;;;;;;21.68;54.69;100766.13;5051013;28;20205;-60
2021/08/17 03:15:33;;;;;;;10.97;6.87;;;;;;;21.66;54.92;100771.47;5050838;28;20199;-60
2021/08/17 03:18:05;;;;;;;14.33;6.23;;;;;;;21.57;55.07;100777.31;5054110;28;20184;-60
2021/08/17 03:20:31;;;;;;;11.17;6.10;;;;;;;21.29;55.29;100776.34;5053870;28;20206;-60
2021/08/17 03:22:56;;;;;;;9.80;6.87;;;;;;;20.76;55.78;100725.47;5054203;28;20180;-60
2021/08/17 03:25:23;;;;;;;14.63;7.50;;;;;;;21.04;56.36;100782.84;5054034;28;20180;-60
2021/08/17 03:27:50;;;;;;;18.27;8.13;;;;;;;20.90;56.21;100795.03;5053728;28;20238;-60
2021/08/17 03:30:17;;;;;;;11.67;7.47;;;;;;;20.79;56.90;100794.13;5054076;28;20190;-60
2021/08/17 03:32:43;;;;;;;9.90;7.10;;;;;;;20.65;56.96;100795.78;5053785;28;20594;-60
2021/08/17 03:35:09;;;;;;;10.53;7.50;;;;;;;20.57;57.51;100800.31;5053968;28;20290;-60
2021/08/17 03:37:37;;;;;;;11.90;8.00;;;;;;;20.57;57.83;100805.19;5053797;28;20186;-60
2021/08/17 03:40:05;;;;;;;18.93;7.73;;;;;;;20.50;57.95;100795.13;5053599;28;20175;-60
2021/08/17 03:42:31;;;;;;;16.87;8.10;;;;;;;20.68;57.73;100822.19;5053504;28;20244;-61
2021/08/17 03:44:57;;;;;;;14.33;8.00;;;;;;;20.66;57.87;100822.66;5053677;28;20183;-60
2021/08/17 03:47:22;;;;;;;10.53;6.87;;;;;;;20.57;58.30;100816.44;5053620;28;20289;-60
2021/08/17 03:49:48;;;;;;;11.03;7.80;;;;;;;20.52;57.70;100809.47;5053645;28;20275;-60
2021/08/17 03:52:13;;;;;;;10.30;7.50;;;;;;;20.37;58.02;100757.38;5053485;28;20252;-60
2021/08/17 03:54:39;;;;;;;9.00;7.27;;;;;;;20.68;57.74;100799.66;5053495;28;20186;-60
2021/08/17 03:57:04;;;;;;;11.47;7.40;;;;;;;20.85;57.69;100806.19;5053597;28;20184;-60
2021/08/17 03:59:30;;;;;;;10.90;7.23;;;;;;;20.94;57.53;100806.06;5053525;28;20248;-60
2021/08/17 04:01:55;;;;;;;10.97;6.97;;;;;;;21.11;56.79;100813.38;5035578;28;20308;-60
2021/08/17 04:04:21;;;;;;;16.87;7.67;;;;;;;21.29;56.95;100820.72;5053315;28;20207;-60
2021/08/17 04:06:46;;;;;;;19.83;7.97;;;;;;;21.49;56.60;100835.44;5053208;28;20208;-60
2021/08/17 04:09:12;;;;;;;17.70;8.43;;;;;;;21.61;55.94;100830.66;5053216;28;20192;-60
2021/08/17 04:11:37;;;;;;;12.93;7.47;;;;;;;21.81;55.73;100834.13;5053310;28;20182;-60
2021/08/17 04:14:03;;;;;;;11.37;7.13;;;;;;;21.81;55.29;100841.84;5053223;28;20666;-60
2021/08/17 04:16:29;;;;;;;13.07;6.50;;;;;;;21.52;55.34;100775.25;5053125;28;20293;-60
2021/08/17 04:18:54;;;;;;;18.43;7.10;;;;;;;21.94;53.62;100813.94;5053053;28;20180;-60
2021/08/17 04:21:19;;;;;;;15.17;6.80;;;;;;;22.30;53.58;100839.25;5053034;28;20180;-60
2021/08/17 04:23:45;;;;;;;17.27;7.53;;;;;;;22.39;53.85;100836.22;5053089;28;20177;-60
2021/08/17 04:26:10;;;;;;;12.90;6.67;;;;;;;22.39;55.03;100829.78;5052811;28;20207;-60
2021/08/17 04:28:36;;;;;;;17.00;6.90;;;;;;;22.43;54.77;100822.63;5052046;28;20184;-60
2021/08/17 04:31:01;;;;;;;10.17;6.80;;;;;;;22.58;54.08;100819.59;5034885;28;20670;-60
2021/08/17 04:33:27;;;;;;;12.60;6.60;;;;;;;22.44;53.89;100762.06;5052707;28;20180;-60
2021/08/17 04:35:52;;;;;;;11.30;7.20;;;;;;;23.02;52.92;100820.41;5049823;28;20191;-60
2021/08/17 04:38:18;;;;;;;13.93;6.63;;;;;;;23.09;52.93;100870.03;5052019;28;20176;-60
2021/08/17 04:40:43;;;;;;;11.77;6.77;;;;;;;22.94;53.19;100878.75;5052245;28;20199;-60
2021/08/17 04:43:09;;;;;;;7.67;5.90;;;;;;;23.02;52.93;100857.16;5051835;28;20310;-60
2021/08/17 04:45:34;;;;;;;11.40;6.73;;;;;;;22.78;53.06;100808.84;5051505;28;20196;-60
2021/08/17 04:48:00;;;;;;;9.53;6.83;;;;;;;23.10;52.30;100843.28;5051785;28;20187;-60
2021/08/17 04:50:26;;;;;;;14.80;7.60;;;;;;;23.21;52.47;100875.22;5052006;28;20552;-60
2021/08/17 04:52:51;;;;;;;11.40;6.47;;;;;;;23.33;52.17;100876.00;5051675;28;20187;-60
2021/08/17 04:55:17;;;;;;;12.00;6.60;;;;;;;23.42;52.61;100870.06;5051846;28;20180;-60
2021/08/17 04:57:57;;;;;;;10.97;6.20;;;;;;;23.54;51.62;100846.16;5051408;28;20610;-60
2021/08/17 05:00:24;;;;;;;14.50;6.77;;;;;;;23.60;52.04;100858.22;5051646;28;20262;-60
2021/08/17 05:02:50;;;;;;;10.53;6.90;;;;;;;23.40;52.28;100850.78;5051470;28;20296;-60
2021/08/17 05:05:16;;;;;;;15.43;6.50;;;;;;;23.51;51.74;100847.94;5051588;28;20276;-60
2021/08/17 05:07:42;;;;;;;11.40;6.57;;;;;;;23.75;51.00;100856.63;5051324;28;20605;-60
2021/08/17 05:10:10;;;;;;;15.67;6.90;;;;;;;23.71;51.82;100810.88;5051786;28;20238;-60
2021/08/17 05:12:36;;;;;;;12.43;6.40;;;;;;;24.29;51.89;100857.78;5051519;28;20207;-61
2021/08/17 05:15:04;;;;;;;11.67;6.70;;;;;;;24.54;50.42;100850.19;5051806;28;20233;-61
2021/08/17 05:17:29;;;;;;;12.83;6.70;;;;;;;24.76;49.16;100861.44;5051137;28;20176;-61
2021/08/17 05:19:55;;;;;;;15.53;6.73;;;;;;;24.92;49.00;100861.31;5051450;28;20249;-61
2021/08/17 05:22:20;;;;;;;10.67;6.93;;;;;;;24.78;46.58;100856.78;5051255;28;20230;-61
2021/08/17 05:24:46;;;;;;;14.97;7.37;;;;;;;24.87;47.44;100850.03;5051394;28;20227;-61
2021/08/17 05:27:11;;;;;;;15.90;7.30;;;;;;;25.07;47.26;100841.88;5050567;28;20222;-61
2021/08/17 05:29:37;;;;;;;12.23;6.70;;;;;;;25.22;47.28;100853.63;5051172;28;20594;-61
2021/08/17 05:32:04;;;;;;;11.47;6.97;;;;;;;25.39;46.59;100834.41;5033254;28;20253;-61
2021/08/17 05:34:30;;;;;;;14.10;7.10;;;;;;;25.55;46.53;100838.41;5050944;28;20190;-61
2021/08/17 05:36:56;;;;;;;16.20;7.30;;;;;;;25.49;47.52;100838.44;5051088;28;20187;-61
2021/08/17 05:39:21;;;;;;;13.90;6.40;;;;;;;25.38;47.79;100798.84;5050278;28;20180;-61
2021/08/17 05:41:47;;;;;;;10.33;6.73;;;;;;;25.85;47.92;100844.81;5050752;28;20271;-61
2021/08/17 05:44:12;;;;;;;10.57;7.37;;;;;;;26.12;47.49;100832.38;5050429;28;20232;-61
2021/08/17 05:46:38;;;;;;;14.20;7.03;;;;;;;26.39;46.43;100834.09;5050212;28;20200;-61
2021/08/17 05:49:03;;;;;;;14.07;6.67;;;;;;;26.40;45.25;100819.34;5050856;28;20195;-61
2021/08/17 05:51:29;;;;;;;12.97;6.77;;;;;;;26.54;44.72;100828.72;5050887;28;20184;-61
2021/08/17 05:53:54;;;;;;;11.33;6.20;;;;;;;26.79;44.17;100824.50;5046531;28;20203;-61
2021/08/17 05:56:20;;;;;;;11.77;6.40;;;;;;;26.59;43.53;100791.75;5049971;28;20195;-61
2021/08/17 05:58:45;;;;;;;11.93;6.30;;;;;;;27.01;43.29;100829.84;5050182;28;20192;-61
2021/08/17 06:01:11;;;;;;;13.80;6.50;;;;;;;27.18;42.54;100842.53;5050603;28;20179;-61
2021/08/17 06:03:36;;;;;;;11.60;6.20;;;;;;;27.43;41.81;100846.00;5050557;28;20184;-61
2021/08/17 06:06:02;;;;;;;14.67;6.17;;;;;;;27.60;41.66;100847.25;5049981;28;20241;-61
2021/08/17 06:08:27;;;;;;;9.33;6.03;;;;;;;27.43;40.82;100812.59;5032500;28;20281;-61
2021/08/17 06:10:53;;;;;;;9.47;5.80;;;;;;;27.69;41.17;100835.41;5050189;28;20192;-61
2021/08/17 06:13:18;;;;;;;9.87;6.13;;;;;;;27.79;40.98;100839.41;5050617;28;20232;-61
2021/08/17 06:15:44;;;;;;;12.47;5.83;;;;;;;27.85;41.09;100837.19;5049469;28;20188;-61
2021/08/17 06:18:10;;;;;;;11.27;7.10;;;;;;;27.53;40.07;100830.78;5032236;28;20234;-61
2021/08/17 06:20:36;;;;;;;14.70;6.57;;;;;;;27.53;40.47;100816.56;5050030;28;20811;-61
2021/08/17 06:23:03;;;;;;;13.83;6.97;;;;;;;27.75;41.42;100838.91;5050391;28;20669;-61
2021/08/17 06:25:29;;;;;;;9.40;6.37;;;;;;;27.79;40.52;100835.78;5050477;28;20176;-61
2021/08/17 06:27:58;;;;;;;13.17;6.40;;;;;;;27.65;40.75;100832.16;5049758;28;20295;-61
2021/08/17 06:30:23;;;;;;;9.40;6.73;;;;;;;27.65;41.87;100825.66;5050339;28;20665;-61
2021/08/17 06:32:49;;;;;;;13.37;6.60;;;;;;;27.65;41.65;100822.81;5050235;28;20214;-61
2021/08/17 06:35:15;;;;;;;11.83;7.13;;;;;;;27.63;42.00;100809.13;5050313;28;20188;-61
2021/08/17 06:37:41;;;;;;;28.80;7.67;;;;;;;27.52;43.06;100826.41;5049785;28;20642;-61
2021/08/17 06:40:07;;;;;;;19.43;8.13;;;;;;;27.57;42.95;100831.25;5050042;28;20195;-61
2021/08/17 06:42:33;;;;;;;10.07;6.63;;;;;;;27.63;42.12;100825.47;5049945;28;20181;-61
2021/08/17 06:44:59;;;;;;;9.95;7.22;;;;;;;27.47;42.77;100798.03;5050068;28;20173;-61
2021/08/17 06:47:25;;;;;;;13.87;6.90;;;;;;;27.76;41.84;100836.84;5049718;28;20207;-61
2021/08/17 06:49:50;;;;;;;12.90;7.03;;;;;;;27.60;41.36;100801.69;5050049;28;20260;-61
2021/08/17 06:52:16;;;;;;;12.13;7.07;;;;;;;27.90;41.56;100838.44;5053332;28;20237;-61
2021/08/17 06:54:41;;;;;;;13.73;7.10;;;;;;;27.97;40.79;100846.31;5036190;28;20184;-61
2021/08/17 06:57:07;;;;;;;13.65;7.13;;;;;;;28.11;40.27;100842.91;5053261;28;20203;-61
2021/08/17 06:59:32;;;;;;;16.13;8.63;;;;;;;28.17;39.66;100848.50;5053889;28;20225;-61
2021/08/17 07:01:58;;;;;;;15.52;9.00;;;;;;;28.19;37.40;100840.16;5053759;28;20184;-61
2021/08/17 07:04:23;;;;;;;18.77;10.20;;;;;;;28.36;38.16;100847.03;5053890;28;20270;-61
2021/08/17 07:06:49;;;;;;;22.15;9.65;;;;;;;28.39;38.46;100853.75;5053150;28;20196;-61
2021/08/17 07:09:14;;;;;;;20.30;10.00;;;;;;;28.49;37.40;100855.59;5053323;28;20214;-61
2021/08/17 07:11:40;;;;;;;20.20;9.88;;;;;;;28.60;36.54;100863.13;5053356;28;20222;-61
2021/08/17 07:14:05;;;;;;;17.30;9.18;;;;;;;28.54;36.95;100840.47;5053682;28;20241;-61
2021/08/17 07:16:31;;;;;;;22.37;10.07;;;;;;;28.79;35.73;100855.19;5052564;28;20719;-61
2021/08/17 07:18:56;;;;;;;23.10;9.47;;;;;;;28.85;35.90;100844.41;5052995;28;20366;-61
2021/08/17 07:21:22;;;;;;;17.73;9.20;;;;;;;28.93;35.91;100846.06;5053138;28;20689;-61
2021/08/17 07:23:47;;;;;;;15.57;9.50;;;;;;;28.81;35.70;100813.38;5053053;28;20180;-61
2021/08/17 07:26:13;;;;;;;18.48;9.20;;;;;;;29.04;36.00;100854.38;5052405;28;20251;-61
2021/08/17 07:28:38;;;;;;;18.85;8.77;;;;;;;29.14;36.30;100849.72;5053097;28;20322;-61
2021/08/17 07:31:04;;;;;;;17.50;9.32;;;;;;;28.80;36.57;100791.91;5053380;28;20188;-61
2021/08/17 07:33:29;;;;;;;14.52;8.88;;;;;;;29.30;36.08;100837.13;5053073;28;20172;-61
2021/08/17 07:35:55;;;;;;;22.63;9.02;;;;;;;29.42;36.17;100831.91;5052550;28;20594;-61
2021/08/17 07:38:21;;;;;;;16.48;9.05;;;;;;;29.55;35.48;100832.59;5034779;28;20781;-61
2021/08/17 07:40:46;;;;;;;16.98;9.10;;;;;;;29.54;35.05;100833.91;5035102;28;20568;-61
2021/08/17 07:43:14;;;;;;;16.35;9.27;;;;;;;29.30;35.13;100793.53;5052670;28;20224;-61
2021/08/17 07:45:40;;;;;;;13.75;9.07;;;;;;;29.15;34.61;100834.13;5052585;28;20173;-61
2021/08/17 07:48:05;;;;;;;16.52;9.82;;;;;;;29.35;35.03;100849.69;5052848;28;20188;-61
2021/08/17 07:50:31;;;;;;;19.73;9.10;;;;;;;29.12;34.59;100797.38;5053094;28;20268;-61
2021/08/17 07:52:57;;;;;;;16.88;9.10;;;;;;;29.57;34.46;100861.34;5052594;28;20188;-61
2021/08/17 07:55:22;;;;;;;19.10;9.15;;;;;;;29.27;35.93;100828.91;5052350;28;20180;-61
2021/08/17 07:57:48;;;;;;;15.73;9.05;;;;;;;29.52;35.87;100865.09;5052159;28;20176;-61
2021/08/17 08:00:14;;;;;;;16.92;8.75;;;;;;;29.03;36.44;100861.38;5034937;28;20672;-61
2021/08/17 08:02:40;;;;;;;17.98;8.40;;;;;;;29.14;37.51;100863.22;5051049;28;20180;-61
2021/08/17 08:05:06;;;;;;;17.85;9.30;;;;;;;29.35;36.17;100853.34;5052504;28;20724;-61
2021/08/17 08:07:32;;;;;;;19.08;8.93;;;;;;;29.44;36.13;100852.06;5052008;28;20208;-61
2021/08/17 08:09:58;;;;;;;15.00;9.07;;;;;;;29.33;37.17;100812.41;5052403;28;20306;-61
2021/08/17 08:12:23;;;;;;;13.85;8.90;;;;;;;29.72;35.59;100858.63;5052352;28;20184;-61
2021/08/17 08:14:49;;;;;;;17.48;8.80;;;;;;;29.59;34.99;100850.13;5052075;28;20188;-61
2021/08/17 08:17:15;;;;;;;17.70;9.40;;;;;;;29.52;35.35;100861.44;5033650;28;20176;-61
2021/08/17 08:19:41;;;;;;;15.70;9.35;;;;;;;29.45;35.34;100847.88;5052375;28;20271;-61
2021/08/17 08:22:07;;;;;;;17.45;8.93;;;;;;;29.56;34.64;100847.63;5052331;28;20200;-61
2021/08/17 08:24:34;;;;;;;16.60;9.40;;;;;;;29.81;34.70;100854.47;5051764;28;20194;-61
2021/08/17 08:27:00;;;;;;;13.32;8.88;;;;;;;29.96;35.22;100843.16;5051179;28;20200;-61
2021/08/17 08:29:26;;;;;;;15.13;9.15;;;;;;;29.84;34.28;100844.81;5052406;28;20172;-61
2021/08/17 08:31:51;;;;;;;19.23;9.25;;;;;;;29.85;34.70;100837.75;5050542;28;20677;-61
2021/08/17 08:34:17;;;;;;;14.88;9.02;;;;;;;30.09;33.51;100837.34;5033884;28;20211;-61
2021/08/17 08:36:43;;;;;;;15.10;8.52;;;;;;;30.21;34.01;100838.56;5051066;28;20215;-61
2021/08/17 08:39:08;;;;;;;18.48;8.85;;;;;;;30.29;33.01;100839.38;5051938;28;20184;-61
2021/08/17 08:41:34;;;;;;;13.13;8.38;;;;;;;30.43;32.81;100818.66;5051595;28;20605;-61
2021/08/17 08:44:00;;;;;;;19.63;9.93;;;;;;;30.49;33.60;100833.56;5033398;28;20228;-61
2021/08/17 08:46:29;;;;;;;15.82;9.30;;;;;;;30.15;33.76;100784.41;5051230;28;20245;-61
2021/08/17 08:48:54;;;;;;;15.38;9.02;;;;;;;30.87;34.01;100827.97;5051819;28;20611;-61
2021/08/17 08:51:21;;;;;;;19.25;9.40;;;;;;;31.18;33.63;100838.13;5051226;28;20180;-61
2021/08/17 08:53:47;;;;;;;15.73;8.90;;;;;;;31.31;32.28;100823.66;5051845;28;20234;-61
2021/08/17 08:56:13;;;;;;;16.77;8.38;;;;;;;31.46;31.50;100821.56;5050028;28;20187;-61
2021/08/17 08:58:41;;;;;;;13.98;8.18;;;;;;;31.69;30.48;100828.03;5051265;28;20188;-61
2021/08/17 09:01:09;;;;;;;13.43;8.25;;;;;;;31.90;31.07;100834.34;5051387;28;20237;-61
2021/08/17 09:03:51;;;;;;;17.50;9.50;;;;;;;32.01;31.84;100833.16;5051341;28;20755;-61
2021/08/17 09:06:16;;;;;;;15.77;8.57;;;;;;;32.09;30.97;100831.81;5050975;28;20204;-61
2021/08/17 09:08:42;;;;;;;12.48;8.30;;;;;;;31.98;32.05;100829.34;5051202;28;20188;-61
2021/08/17 09:11:21;;;;;;;13.30;8.73;;;;;;;32.18;32.10;100825.47;5033109;28;20254;-61
2021/08/17 09:13:48;;;;;;;11.20;8.32;;;;;;;31.98;32.00;100820.00;5050944;28;20188;-61
2021/08/17 09:16:31;;;;;;;17.08;9.55;;;;;;;31.76;31.90;100815.84;5050383;28;20191;-61
2021/08/17 09:18:58;;;;;;;13.23;8.60;;;;;;;31.70;32.61;100797.28;5050920;28;20184;-61
2021/08/17 09:21:40;;;;;;;12.35;7.82;;;;;;;32.23;31.56;100830.25;5050936;28;20184;-61
2021/08/17 09:24:21;;;;;;;20.83;9.02;;;;;;;32.36;30.29;100821.44;5051355;28;20646;-61
2021/08/17 09:26:52;;;;;;;17.73;8.50;;;;;;;32.60;30.05;100817.88;5032040;28;20200;-61
2021/08/17 09:29:26;;;;;;;12.10;8.43;;;;;;;32.73;29.92;100829.09;5051247;28;20172;-61
2021/08/17 09:31:54;;;;;;;15.05;8.32;;;;;;;32.64;31.07;100820.31;5032482;28;20240;-61
2021/08/17 09:34:20;;;;;;;15.50;8.30;;;;;;;32.78;31.13;100818.75;5051086;28;20635;-61
2021/08/17 09:36:46;;;;;;;11.95;7.90;;;;;;;32.92;29.71;100825.75;5032124;28;20180;-61
2021/08/17 09:39:28;;;;;;;16.83;8.05;;;;;;;33.21;29.06;100816.16;5033059;28;20192;-61
2021/08/17 09:42:17;;;;;;;10.70;7.18;;;;;;;33.48;28.59;100810.59;5050802;28;20871;-61
2021/08/17 09:44:45;;;;;;;15.10;7.72;;;;;;;33.67;28.91;100805.81;5050488;28;20224;-61
2021/08/17 09:47:12;;;;;;;15.73;8.93;;;;;;;33.56;28.63;100808.41;5049768;28;20494;-61
2021/08/17 09:49:38;;;;;;;13.18;7.82;;;;;;;33.61;28.28;100772.94;5050631;28;20263;-61
2021/08/17 09:52:15;;;;;;;11.70;7.90;;;;;;;34.02;28.25;100803.75;5050739;28;20709;-61
2021/08/17 09:54:46;;;;;;;13.20;8.30;;;;;;;33.98;28.22;100763.91;5050741;28;20629;-61
2021/08/17 09:57:12;;;;;;;14.82;7.28;;;;;;;34.12;27.95;100775.84;5049842;28;20271;-61
2021/08/17 09:59:40;;;;;;;14.30;8.15;;;;;;;34.01;28.71;100793.59;5050273;28;20636;-61
2021/08/17 10:02:06;;;;;;;10.45;7.68;;;;;;;33.91;28.28;100755.38;5050233;28;20259;-61
2021/08/17 10:04:33;;;;;;;14.23;7.30;;;;;;;34.43;29.00;100792.16;5050493;28;20271;-61
2021/08/17 10:07:01;;;;;;;14.00;7.25;;;;;;;34.48;28.81;100801.88;5049547;28;20263;-61
2021/08/17 10:09:28;;;;;;;15.02;7.47;;;;;;;34.70;28.45;100792.91;5050664;28;20187;-62
2021/08/17 10:11:54;;;;;;;13.70;7.05;;;;;;;34.96;28.40;100792.16;5032242;28;20405;-61
2021/08/17 10:14:20;;;;;;;12.32;6.75;;;;;;;34.71;27.94;100788.69;5050538;28;20207;-62
2021/08/17 10:16:46;;;;;;;10.30;6.30;;;;;;;34.65;28.46;100787.44;5049557;28;20180;-62
2021/08/17 10:19:16;;;;;;;10.43;6.65;;;;;;;34.77;27.95;100782.69;5050572;28;20627;-61
2021/08/17 10:21:45;;;;;;;9.95;6.40;;;;;;;34.73;27.52;100779.44;5050202;28;20712;-61
2021/08/17 10:24:49;;;;;;;9.13;6.50;;;;;;;35.01;28.25;100776.72;5050642;28;20693;-61
2021/08/17 10:27:27;;;;;;;11.95;6.45;;;;;;;35.24;26.80;100777.16;5030377;28;20216;-61
2021/08/17 10:30:01;;;;;;;9.13;5.40;;;;;;;35.27;25.85;100778.09;5052425;28;20203;-61
2021/08/17 10:32:48;;;;;;;8.95;6.00;;;;;;;35.14;25.00;100772.69;5054503;28;20256;-61
2021/08/17 10:38:12;;;;;;;8.23;5.95;;;;;;;35.56;26.08;100773.91;5034186;28;20677;-62
2021/08/17 10:43:42;;;;;;;9.95;6.07;;;;;;;35.40;26.41;100761.13;5034504;28;20233;-62
2021/08/17 10:46:09;;;;;;;7.70;5.90;;;;;;;35.82;26.45;100755.75;5029713;28;20818;-62
2021/08/17 10:48:44;;;;;;;10.35;5.88;;;;;;;36.07;26.69;100743.88;5034421;28;20268;-62
2021/08/17 10:51:29;;;;;;;10.95;5.78;;;;;;;36.12;26.32;100734.94;5034200;28;20191;-62
2021/08/17 10:54:16;;;;;;;9.95;5.85;;;;;;;36.23;26.34;100736.47;5032062;28;20280;-61
2021/08/17 10:56:42;;;;;;;7.18;5.80;;;;;;;36.55;26.15;100741.72;5053120;28;20250;-62
2021/08/17 10:59:07;;;;;;;8.32;5.70;;;;;;;36.59;26.20;100718.94;5054097;28;20676;-62
2021/08/17 11:01:45;;;;;;;7.30;5.40;;;;;;;36.88;24.90;100731.13;5053957;28;20180;-62
2021/08/17 11:04:17;;;;;;;9.27;5.72;;;;;;;37.05;25.16;100725.88;5036157;28;20682;-62
2021/08/17 11:06:50;;;;;;;11.35;5.90;;;;;;;37.12;24.38;100716.31;5053068;28;20235;-62
2021/08/17 11:09:35;;;;;;;10.65;5.68;;;;;;;37.20;24.50;100724.75;5053607;28;20678;-62
2021/08/17 11:12:04;;;;;;;9.30;6.00;;;;;;;37.35;23.92;100718.56;5053242;28;20246;-62
2021/08/17 11:14:31;;;;;;;8.27;5.53;;;;;;;37.36;25.01;100714.31;5053752;28;20182;-62
2021/08/17 11:17:02;;;;;;;8.95;5.93;;;;;;;37.43;25.48;100682.31;5052645;28;20183;-62
2021/08/17 11:19:30;;;;;;;12.25;5.68;;;;;;;37.39;24.87;100710.19;5053680;28;20230;-62
2021/08/17 11:22:01;;;;;;;10.55;6.05;;;;;;;37.58;24.69;100704.28;5053212;28;20188;-62
2021/08/17 11:24:30;;;;;;;8.77;5.47;;;;;;;37.85;24.44;100698.88;5053718;28;20246;-62